Time;durP1;ratioP1;P1;durP2;ratioP2;P2;SDS_P1;SDS_P2;PMS_P1;PMS_P2;Temp;Humidity;BMP_temperature;BMP_pressure;BME280_temperature;BME280_humidity;BME280_pressure;Samples;Min_cycle;Max_cycle;Signal;HPM_P1;HPM_P2
2021/10/29 00:00:18;;;;;;;36.75;13.05;;;;;;;5.35;81.65;96317.31;5048067;28;20755;-71
2021/10/29 00:02:44;;;;;;;29.52;12.30;;;;;;;5.30;81.48;96308.47;5047756;28;20059;-71
2021/10/29 00:05:11;;;;;;;41.75;12.45;;;;;;;5.22;81.25;96307.22;5048394;28;20079;-71
2021/10/29 00:07:38;;;;;;;29.27;11.95;;;;;;;5.19;81.50;96296.97;5047625;28;20067;-71
2021/10/29 00:10:05;;;;;;;81.75;14.35;;;;;;;5.16;81.62;96302.91;5047754;28;20057;-71
2021/10/29 00:12:32;;;;;;;72.63;13.10;;;;;;;5.12;81.66;96304.59;5047735;28;20053;-71
2021/10/29 00:15:00;;;;;;;49.53;14.55;;;;;;;5.07;81.55;96310.03;5047991;28;20544;-71
2021/10/29 00:17:26;;;;;;;37.20;12.15;;;;;;;5.02;81.44;96304.69;5047751;28;20044;-73
2021/10/29 00:19:53;;;;;;;81.10;13.05;;;;;;;4.92;81.42;96303.69;5047723;28;20056;-71
2021/10/29 00:22:19;;;;;;;31.33;12.07;;;;;;;4.94;81.33;96290.69;5047451;28;20044;-71
2021/10/29 00:24:45;;;;;;;27.67;12.15;;;;;;;4.97;81.42;96300.94;5048153;28;20056;-71
2021/10/29 00:27:12;;;;;;;105.05;14.25;;;;;;;4.89;81.48;96298.84;5047918;28;20060;-71
2021/10/29 00:29:39;;;;;;;36.67;12.18;;;;;;;4.86;81.59;96299.41;5047296;28;20523;-71
2021/10/29 00:32:07;;;;;;;47.22;12.75;;;;;;;4.84;81.83;96295.38;5047788;28;20079;-71
2021/10/29 00:34:34;;;;;;;81.85;13.18;;;;;;;4.81;81.30;96291.38;5047244;28;20049;-71
2021/10/29 00:37:00;;;;;;;53.65;11.82;;;;;;;4.76;81.85;96288.72;5047935;28;20447;-71
2021/10/29 00:39:27;;;;;;;58.35;14.55;;;;;;;4.77;81.77;96290.31;5047170;28;20084;-71
2021/10/29 00:41:53;;;;;;;48.33;13.43;;;;;;;4.70;81.90;96285.25;5047555;28;20057;-71
2021/10/29 00:44:23;;;;;;;113.78;14.63;;;;;;;4.66;82.29;96275.31;5047324;28;20511;-71
2021/10/29 00:46:50;;;;;;;26.25;11.68;;;;;;;4.57;82.09;96279.69;5047008;28;20563;-71
2021/10/29 00:49:19;;;;;;;68.60;12.90;;;;;;;4.49;82.32;96274.88;5047358;28;20131;-71
2021/10/29 00:51:46;;;;;;;72.70;13.70;;;;;;;4.49;82.34;96273.00;5045660;28;20607;-71
2021/10/29 00:54:15;;;;;;;52.15;13.82;;;;;;;4.54;82.86;96274.84;5047229;28;20103;-71
2021/10/29 00:56:42;;;;;;;54.95;14.43;;;;;;;4.59;82.37;96289.09;5046930;28;20053;-71
2021/10/29 00:59:09;;;;;;;98.88;15.88;;;;;;;4.56;82.42;96288.88;5047088;28;20052;-71
2021/10/29 01:01:36;;;;;;;47.40;13.15;;;;;;;4.50;82.24;96284.59;5046963;28;20737;-71
2021/10/29 01:04:03;;;;;;;36.20;12.13;;;;;;;4.49;82.44;96282.97;5046832;28;20495;-70
2021/10/29 01:06:32;;;;;;;45.83;13.98;;;;;;;4.52;82.84;96272.44;5047642;28;20060;-71
2021/10/29 01:08:59;;;;;;;35.78;13.30;;;;;;;4.55;82.85;96261.09;5046929;28;20051;-71
2021/10/29 01:11:28;;;;;;;42.55;12.93;;;;;;;4.53;82.82;96257.06;5046741;28;20526;-71
2021/10/29 01:13:54;;;;;;;39.72;14.05;;;;;;;4.52;82.90;96264.34;5046793;28;20053;-71
2021/10/29 01:16:22;;;;;;;80.60;14.57;;;;;;;4.44;82.50;96254.97;5047547;28;20060;-71
2021/10/29 01:18:48;;;;;;;31.33;12.85;;;;;;;4.48;82.82;96255.19;5046750;28;20045;-71
2021/10/29 01:21:17;;;;;;;21.35;13.77;;;;;;;4.50;82.50;96257.63;5046827;28;20049;-71
2021/10/29 01:23:44;;;;;;;21.10;11.77;;;;;;;4.49;82.44;96250.59;5047118;28;20049;-71
2021/10/29 01:26:14;;;;;;;69.43;14.55;;;;;;;4.44;82.55;96251.47;5046592;28;20057;-71
2021/10/29 01:28:41;;;;;;;32.97;12.48;;;;;;;4.46;82.44;96246.59;5047268;28;20106;-71
2021/10/29 01:31:08;;;;;;;47.95;12.82;;;;;;;4.41;82.51;96244.75;5046030;28;20045;-71
2021/10/29 01:33:34;;;;;;;27.90;12.52;;;;;;;4.40;82.61;96243.13;5047760;28;20075;-71
2021/10/29 01:36:01;;;;;;;44.90;12.50;;;;;;;4.43;82.66;96241.75;5046684;28;20057;-71
2021/10/29 01:38:32;;;;;;;43.05;13.68;;;;;;;4.43;82.51;96237.16;5047448;28;20041;-71
2021/10/29 01:40:58;;;;;;;35.80;12.18;;;;;;;4.48;82.63;96228.22;5046427;28;20041;-71
2021/10/29 01:43:25;;;;;;;37.22;12.07;;;;;;;4.55;82.21;96238.72;5047078;28;20059;-71
2021/10/29 01:45:51;;;;;;;22.80;11.90;;;;;;;4.51;82.32;96234.97;5046507;28;20045;-71
2021/10/29 01:48:18;;;;;;;21.38;11.90;;;;;;;4.51;82.40;96232.28;5046299;28;20045;-71
2021/10/29 01:50:44;;;;;;;82.28;14.10;;;;;;;4.52;82.80;96228.47;5046784;28;20049;-71
2021/10/29 01:53:11;;;;;;;31.40;11.75;;;;;;;4.56;81.65;96224.16;5046461;28;20475;-71
2021/10/29 01:55:39;;;;;;;30.63;12.02;;;;;;;4.56;81.50;96219.56;5047106;28;20053;-71
2021/10/29 01:58:05;;;;;;;29.55;13.30;;;;;;;4.55;81.83;96220.66;5045878;28;20759;-70
2021/10/29 02:00:32;;;;;;;62.95;12.73;;;;;;;4.57;81.75;96215.75;5047351;28;20053;-71
2021/10/29 02:02:58;;;;;;;40.67;13.23;;;;;;;4.47;81.87;96221.25;5046932;28;20056;-71
2021/10/29 02:05:25;;;;;;;33.80;11.88;;;;;;;4.43;82.14;96215.59;5050552;28;20504;-71
2021/10/29 02:07:52;;;;;;;58.47;12.73;;;;;;;4.41;82.50;96211.59;5050239;28;20044;-71
2021/10/29 02:10:19;;;;;;;31.38;11.50;;;;;;;4.45;82.01;96208.06;5049704;28;20500;-71
2021/10/29 02:12:46;;;;;;;65.50;11.43;;;;;;;4.40;82.05;96210.78;5050460;28;20061;-71
2021/10/29 02:15:13;;;;;;;25.58;10.68;;;;;;;4.38;81.92;96204.84;5049554;28;20056;-71
2021/10/29 02:17:39;;;;;;;81.05;12.00;;;;;;;4.32;81.82;96203.28;5050428;28;20052;-70
2021/10/29 02:20:07;;;;;;;55.80;10.95;;;;;;;4.31;81.83;96207.06;5049092;28;20045;-71
2021/10/29 02:22:33;;;;;;;44.08;11.43;;;;;;;4.32;82.13;96203.28;5050609;28;20049;-70
2021/10/29 02:25:00;;;;;;;37.67;10.18;;;;;;;4.35;82.22;96197.34;5049660;28;20049;-70
2021/10/29 02:27:26;;;;;;;53.67;12.30;;;;;;;4.31;82.07;96195.50;5050293;28;20061;-70
2021/10/29 02:29:54;;;;;;;42.30;10.75;;;;;;;4.31;80.67;96190.09;5049326;28;20060;-70
2021/10/29 02:32:21;;;;;;;52.38;11.13;;;;;;;4.28;80.82;96196.88;5049576;28;20520;-70
2021/10/29 02:34:47;;;;;;;48.78;12.10;;;;;;;4.23;81.20;96188.81;5049891;28;20052;-70
2021/10/29 02:37:14;;;;;;;48.65;11.35;;;;;;;4.25;82.02;96193.94;5049391;28;20111;-70
2021/10/29 02:39:40;;;;;;;75.53;11.45;;;;;;;4.22;82.42;96186.38;5049696;28;20053;-70
2021/10/29 02:42:07;;;;;;;93.60;11.35;;;;;;;4.19;82.20;96185.06;5048604;28;20072;-70
2021/10/29 02:44:33;;;;;;;75.78;9.85;;;;;;;4.20;82.33;96183.97;5050477;28;20057;-70
2021/10/29 02:47:01;;;;;;;22.58;8.60;;;;;;;4.21;82.24;96184.78;5049269;28;20071;-70
2021/10/29 02:49:27;;;;;;;44.40;10.02;;;;;;;4.21;82.39;96179.41;5030122;28;20103;-70
2021/10/29 02:51:54;;;;;;;23.85;8.57;;;;;;;4.19;82.24;96172.41;5029102;28;20056;-70
2021/10/29 02:54:20;;;;;;;57.92;9.13;;;;;;;4.17;82.19;96182.63;5029458;28;20041;-70
2021/10/29 02:56:47;;;;;;;38.67;9.10;;;;;;;4.11;81.78;96177.56;5029075;28;20437;-70
2021/10/29 02:59:13;;;;;;;29.05;8.80;;;;;;;4.09;82.16;96175.16;5029105;28;20139;-71
2021/10/29 03:01:40;;;;;;;47.20;9.50;;;;;;;4.04;82.04;96172.50;5029204;28;20045;-71
2021/10/29 03:04:08;;;;;;;49.70;9.65;;;;;;;4.00;82.16;96174.16;5028667;28;20053;-71
2021/10/29 03:06:35;;;;;;;26.52;8.77;;;;;;;4.03;81.72;96180.88;5029667;28;20060;-71
2021/10/29 03:09:01;;;;;;;32.22;9.73;;;;;;;3.99;81.80;96187.91;5028080;28;20065;-70
2021/10/29 03:11:28;;;;;;;25.98;9.13;;;;;;;4.06;81.16;96183.81;5029685;28;20049;-71
2021/10/29 03:13:54;;;;;;;45.80;9.80;;;;;;;3.96;81.39;96185.75;5028546;28;20099;-70
2021/10/29 03:16:21;;;;;;;30.50;8.88;;;;;;;3.93;81.65;96179.06;5028595;28;20083;-70
2021/10/29 03:18:48;;;;;;;36.25;8.65;;;;;;;3.93;82.17;96179.06;5028901;28;20037;-71
2021/10/29 03:21:15;;;;;;;44.53;10.23;;;;;;;3.95;82.33;96176.88;5028935;28;20045;-71
2021/10/29 03:23:42;;;;;;;31.73;9.00;;;;;;;3.99;82.23;96177.94;5029434;28;20049;-71
2021/10/29 03:26:09;;;;;;;27.27;8.77;;;;;;;3.98;81.81;96173.63;5028404;28;20049;-70
2021/10/29 03:28:35;;;;;;;52.90;9.43;;;;;;;3.86;81.48;96168.59;5029145;28;20135;-70
2021/10/29 03:31:02;;;;;;;22.02;8.98;;;;;;;3.88;82.21;96162.94;5027894;28;20699;-70
2021/10/29 03:33:34;;;;;;;26.67;9.30;;;;;;;3.90;82.23;96158.84;5029282;28;20049;-71
2021/10/29 03:36:01;;;;;;;33.55;9.77;;;;;;;3.88;82.05;96161.03;5028139;28;20052;-71
2021/10/29 03:38:53;;;;;;;75.30;10.63;;;;;;;3.84;82.25;96159.19;5029111;28;20496;-71
2021/10/29 03:41:21;;;;;;;35.83;9.38;;;;;;;3.84;82.71;96143.81;5044503;28;20056;-71
2021/10/29 03:43:52;;;;;;;40.08;10.48;;;;;;;3.84;82.77;96146.50;5048596;28;20126;-71
2021/10/29 03:46:20;;;;;;;31.95;10.05;;;;;;;3.87;82.96;96148.66;5048127;28;20059;-71
2021/10/29 03:48:56;;;;;;;56.08;9.85;;;;;;;3.87;82.72;96151.34;5048081;28;20644;-70
2021/10/29 03:51:25;;;;;;;35.80;8.95;;;;;;;3.91;81.56;96152.41;5048359;28;20049;-71
2021/10/29 03:53:56;;;;;;;42.97;9.05;;;;;;;3.88;81.08;96150.25;5047943;28;20072;-71
2021/10/29 03:56:24;;;;;;;42.55;10.00;;;;;;;3.82;81.64;96146.00;5048502;28;20049;-70
2021/10/29 03:58:53;;;;;;;23.83;9.02;;;;;;;3.87;81.48;96143.28;5047753;28;20041;-70
2021/10/29 04:01:20;;;;;;;17.08;8.68;;;;;;;3.84;81.63;96140.31;5047696;28;20048;-70
2021/10/29 04:03:47;;;;;;;26.15;8.63;;;;;;;3.79;81.68;96134.97;5048152;28;20057;-71
2021/10/29 04:06:13;;;;;;;14.77;7.43;;;;;;;3.71;81.93;96139.06;5047691;28;20060;-70
2021/10/29 04:08:40;;;;;;;30.30;8.15;;;;;;;3.65;81.69;96140.16;5048249;28;20056;-71
2021/10/29 04:11:08;;;;;;;32.03;7.82;;;;;;;3.60;81.83;96129.44;5046968;28;20056;-70
2021/10/29 04:13:37;;;;;;;14.55;7.93;;;;;;;3.55;81.63;96140.22;5048664;28;20052;-70
2021/10/29 04:16:05;;;;;;;34.00;8.65;;;;;;;3.52;81.72;96141.59;5046717;28;20060;-70
2021/10/29 04:18:33;;;;;;;24.92;8.13;;;;;;;3.46;81.55;96139.22;5048421;28;20503;-70
2021/10/29 04:21:00;;;;;;;46.17;9.30;;;;;;;3.43;81.74;96137.88;5047476;28;20048;-71
2021/10/29 04:23:26;;;;;;;29.48;9.38;;;;;;;3.49;82.32;96135.97;5047991;28;20053;-71
2021/10/29 04:25:53;;;;;;;29.50;9.48;;;;;;;3.51;82.19;96128.44;5047589;28;20060;-71
2021/10/29 04:28:21;;;;;;;32.72;10.32;;;;;;;3.53;81.76;96128.94;5046978;28;20052;-70
2021/10/29 04:30:48;;;;;;;22.13;10.23;;;;;;;3.63;81.64;96120.81;5047573;28;20052;-70
2021/10/29 04:33:15;;;;;;;24.27;9.25;;;;;;;3.67;81.97;96127.25;5046763;28;20049;-71
2021/10/29 04:35:45;;;;;;;20.77;9.10;;;;;;;3.68;81.75;96123.47;5048099;28;20044;-71
2021/10/29 04:38:13;;;;;;;27.65;10.60;;;;;;;3.68;81.63;96120.78;5046528;28;20041;-71
2021/10/29 04:40:42;;;;;;;52.30;11.88;;;;;;;3.69;81.74;96125.06;5047748;28;20044;-71
2021/10/29 04:43:10;;;;;;;31.42;9.85;;;;;;;3.70;81.99;96118.59;5046467;28;20523;-70
2021/10/29 04:45:38;;;;;;;21.38;9.77;;;;;;;3.72;81.88;96102.97;5047596;28;20045;-71
2021/10/29 04:48:06;;;;;;;27.15;10.88;;;;;;;3.73;81.60;96109.16;5046966;28;20041;-71
2021/10/29 04:50:33;;;;;;;39.13;9.55;;;;;;;3.66;81.76;96109.50;5047325;28;20059;-70
2021/10/29 04:52:59;;;;;;;42.35;10.20;;;;;;;3.56;82.01;96104.16;5047566;28;20300;-71
2021/10/29 04:55:26;;;;;;;39.88;10.25;;;;;;;3.58;82.36;96107.38;5046229;28;20048;-71
2021/10/29 04:57:54;;;;;;;81.78;11.25;;;;;;;3.59;82.46;96109.78;5047870;28;20055;-71
2021/10/29 05:00:21;;;;;;;30.55;8.45;;;;;;;3.62;81.64;96100.34;5046120;28;20099;-73
2021/10/29 05:02:49;;;;;;;62.10;9.10;;;;;;;3.56;81.40;96098.78;5047727;28;20048;-73
2021/10/29 05:05:15;;;;;;;41.75;8.80;;;;;;;3.53;81.53;96089.38;5045823;28;20531;-72
2021/10/29 05:07:43;;;;;;;83.45;11.23;;;;;;;3.51;81.47;96096.13;5047278;28;20098;-72
2021/10/29 05:10:10;;;;;;;73.32;10.93;;;;;;;3.51;81.55;96093.44;5046266;28;20041;-74
2021/10/29 05:12:36;;;;;;;23.58;8.70;;;;;;;3.55;80.79;96087.22;5047087;28;20053;-74
2021/10/29 05:15:03;;;;;;;42.60;8.50;;;;;;;3.54;80.71;96095.56;5046896;28;20096;-72
2021/10/29 05:17:29;;;;;;;46.85;13.18;;;;;;;3.53;81.09;96083.19;5046826;28;20049;-74
2021/10/29 05:19:57;;;;;;;50.80;15.63;;;;;;;3.54;81.25;96084.78;5047560;28;20053;-73
2021/10/29 05:22:24;;;;;;;42.30;10.77;;;;;;;3.52;81.33;96089.66;5045875;28;20114;-74
2021/10/29 05:24:50;;;;;;;31.30;10.68;;;;;;;3.50;81.20;96078.34;5047058;28;20408;-74
2021/10/29 05:27:17;;;;;;;33.80;11.40;;;;;;;3.50;81.22;96078.34;5044321;28;20459;-73
2021/10/29 05:29:43;;;;;;;27.48;9.40;;;;;;;3.51;81.63;96080.78;5047035;28;20051;-74
2021/10/29 05:32:09;;;;;;;47.33;7.85;;;;;;;3.49;80.96;96082.13;5045611;28;20049;-73
2021/10/29 05:34:36;;;;;;;57.97;10.73;;;;;;;3.45;81.15;96086.47;5047083;28;20053;-74
2021/10/29 05:37:04;;;;;;;46.47;9.15;;;;;;;3.47;81.07;96084.31;5046281;28;20118;-73
2021/10/29 05:39:31;;;;;;;64.28;8.82;;;;;;;3.37;80.85;96083.28;5050246;28;20048;-74
2021/10/29 05:41:58;;;;;;;26.55;8.13;;;;;;;3.40;80.93;96082.72;5051155;28;20077;-74
2021/10/29 05:44:25;;;;;;;49.30;10.15;;;;;;;3.40;81.36;96080.03;5049562;28;20458;-74
2021/10/29 05:46:51;;;;;;;29.15;9.52;;;;;;;3.44;81.68;96090.22;5051338;28;20052;-74
2021/10/29 05:49:18;;;;;;;32.20;10.60;;;;;;;3.49;81.17;96087.50;5049731;28;20052;-74
2021/10/29 05:51:47;;;;;;;43.25;10.82;;;;;;;3.51;81.28;96086.16;5051080;28;20416;-74
2021/10/29 05:54:37;;;;;;;19.42;8.95;;;;;;;3.52;81.55;96092.34;5049444;28;20049;-74
2021/10/29 05:57:05;;;;;;;30.80;8.25;;;;;;;3.48;81.22;96091.28;5049947;28;20052;-74
2021/10/29 05:59:35;;;;;;;21.98;7.93;;;;;;;3.49;81.41;96090.19;5050553;28;20123;-74
2021/10/29 06:02:03;;;;;;;33.58;8.07;;;;;;;3.45;81.46;96094.56;5049562;28;20049;-71
2021/10/29 06:04:29;;;;;;;34.00;7.78;;;;;;;3.47;81.95;96098.56;5050971;28;20052;-74
2021/10/29 06:06:57;;;;;;;29.25;8.70;;;;;;;3.44;82.34;96091.03;5049696;28;20053;-73
2021/10/29 06:09:25;;;;;;;29.67;8.60;;;;;;;3.44;81.71;96084.84;5050180;28;20079;-74
2021/10/29 06:11:52;;;;;;;27.95;8.63;;;;;;;3.42;81.65;96097.78;5049376;28;20655;-74
2021/10/29 06:14:19;;;;;;;35.50;8.60;;;;;;;3.27;80.67;96091.41;5049817;28;20080;-74
2021/10/29 06:16:46;;;;;;;27.83;7.43;;;;;;;3.20;80.78;96095.50;5049644;28;20778;-74
2021/10/29 06:19:12;;;;;;;31.45;7.38;;;;;;;3.22;81.52;96101.38;5049589;28;20052;-74
2021/10/29 06:21:42;;;;;;;20.85;7.25;;;;;;;3.24;81.92;96094.66;5049898;28;20049;-74
2021/10/29 06:24:11;;;;;;;25.55;7.50;;;;;;;3.25;81.85;96098.97;5049169;28;20057;-74
2021/10/29 06:26:43;;;;;;;27.33;6.78;;;;;;;3.21;81.19;96092.50;5050365;28;20045;-73
2021/10/29 06:29:10;;;;;;;23.85;7.00;;;;;;;3.16;80.99;96091.75;5048840;28;20052;-73
2021/10/29 06:31:36;;;;;;;30.13;9.15;;;;;;;3.13;81.42;96104.69;5050114;28;20036;-74
2021/10/29 06:34:03;;;;;;;17.25;6.82;;;;;;;3.25;82.05;96106.22;5048857;28;20056;-73
2021/10/29 06:36:30;;;;;;;41.65;8.15;;;;;;;3.20;81.70;96090.91;5050061;28;20564;-74
2021/10/29 06:38:57;;;;;;;27.50;7.55;;;;;;;3.20;82.41;96096.28;5049563;28;20048;-74
2021/10/29 06:41:24;;;;;;;37.90;8.32;;;;;;;3.24;81.98;96107.31;5049294;28;20523;-74
2021/10/29 06:44:04;;;;;;;14.35;7.25;;;;;;;3.28;82.20;96108.34;5050138;28;20056;-74
2021/10/29 06:46:35;;;;;;;35.50;8.68;;;;;;;3.28;82.26;96101.09;5048973;28;20689;-74
2021/10/29 06:49:15;;;;;;;19.17;7.63;;;;;;;3.36;81.31;96099.72;5049715;28;20052;-73
2021/10/29 06:52:08;;;;;;;38.20;7.85;;;;;;;3.30;80.49;96107.00;5048810;28;20049;-74
2021/10/29 07:00:22;;;;;;;36.00;6.50;;;;;;;3.15;80.39;96112.47;4985917;28;20149;-74
2021/10/29 07:03:22;;;;;;;15.05;6.30;;;;;;;3.03;80.66;96112.78;4987605;28;20058;-73
2021/10/29 07:11:54;;;;;;;13.90;6.78;;;;;;;3.00;82.15;96128.66;5029261;28;20053;-73
2021/10/29 07:41:49;;;;;;;20.33;7.50;;;;;;;3.34;83.42;96132.28;5027074;28;20828;-74
2021/10/29 07:44:17;;;;;;;28.75;8.30;;;;;;;3.37;82.61;96120.16;5027758;28;20054;-75
2021/10/29 07:46:44;;;;;;;26.63;6.97;;;;;;;3.27;81.46;96128.28;5029525;28;20420;-74
2021/10/29 07:49:13;;;;;;;19.65;6.88;;;;;;;3.16;82.04;96127.53;5027440;28;20049;-74
2021/10/29 07:51:40;;;;;;;31.33;7.15;;;;;;;3.05;82.44;96136.72;5028829;28;20132;-74
2021/10/29 07:54:07;;;;;;;23.88;7.93;;;;;;;3.05;83.07;96131.34;5027341;28;20053;-73
2021/10/29 07:56:33;;;;;;;28.17;7.95;;;;;;;2.99;83.02;96127.06;5028587;28;20052;-74
2021/10/29 07:59:00;;;;;;;25.92;8.25;;;;;;;3.07;84.23;96139.94;5028158;28;20052;-75
2021/10/29 08:01:27;;;;;;;19.48;8.65;;;;;;;3.20;84.85;96136.66;5027397;28;20061;-74
2021/10/29 08:03:53;;;;;;;66.57;9.85;;;;;;;3.26;84.73;96135.53;5028235;28;20081;-73
2021/10/29 08:06:21;;;;;;;19.48;9.07;;;;;;;3.25;84.42;96136.63;5027654;28;20051;-74
2021/10/29 08:08:49;;;;;;;17.67;9.00;;;;;;;3.35;84.84;96141.97;5028310;28;20706;-74
2021/10/29 08:11:16;;;;;;;18.00;7.70;;;;;;;3.51;84.34;96145.38;5037007;28;20049;-74
2021/10/29 08:13:42;;;;;;;20.85;8.43;;;;;;;3.57;83.13;96154.22;5048488;28;20046;-74
2021/10/29 08:16:09;;;;;;;25.10;7.80;;;;;;;3.58;82.54;96145.88;5047058;28;20064;-74
2021/10/29 08:18:43;;;;;;;33.42;8.88;;;;;;;3.67;82.01;96154.97;5048351;28;20056;-74
2021/10/29 08:21:10;;;;;;;15.00;8.63;;;;;;;3.77;82.10;96150.63;5046914;28;20053;-74
2021/10/29 08:23:39;;;;;;;26.50;8.18;;;;;;;3.79;81.75;96141.16;5047471;28;20462;-74
2021/10/29 08:26:05;;;;;;;41.53;8.52;;;;;;;3.74;81.49;96151.97;5047139;28;20053;-73
2021/10/29 08:28:32;;;;;;;37.30;8.93;;;;;;;3.80;82.12;96142.75;5047250;28;20068;-75
2021/10/29 08:30:59;;;;;;;31.40;8.90;;;;;;;3.78;81.00;96144.94;5047370;28;20099;-74
2021/10/29 08:33:25;;;;;;;28.95;8.68;;;;;;;3.70;81.32;96153.59;5046477;28;20103;-74
2021/10/29 08:35:52;;;;;;;19.00;8.70;;;;;;;3.58;81.77;96150.44;5047803;28;20045;-74
2021/10/29 08:38:21;;;;;;;65.63;9.63;;;;;;;3.56;81.96;96147.25;5046380;28;20512;-74
2021/10/29 08:40:49;;;;;;;19.30;8.95;;;;;;;3.68;82.51;96145.00;5047745;28;20167;-74
2021/10/29 08:43:16;;;;;;;19.60;10.65;;;;;;;3.77;83.42;96146.03;5046773;28;20048;-75
2021/10/29 08:45:43;;;;;;;21.75;9.52;;;;;;;3.85;82.80;96145.44;5047308;28;20041;-74
2021/10/29 08:48:10;;;;;;;18.30;8.80;;;;;;;3.95;82.45;96144.56;5047054;28;20053;-74
2021/10/29 08:50:36;;;;;;;21.88;9.15;;;;;;;3.87;81.38;96137.09;5047039;28;20056;-75
2021/10/29 08:53:03;;;;;;;36.53;10.23;;;;;;;3.90;81.65;96131.91;5047194;28;20052;-74
2021/10/29 08:55:32;;;;;;;14.55;7.97;;;;;;;3.91;81.82;96132.72;5046982;28;20060;-74
2021/10/29 08:58:04;;;;;;;15.13;9.43;;;;;;;3.99;81.91;96129.44;5047754;28;20408;-74
2021/10/29 09:00:35;;;;;;;23.35;10.18;;;;;;;4.12;82.71;96133.38;5046613;28;20420;-74
2021/10/29 09:03:05;;;;;;;20.20;10.63;;;;;;;4.23;82.95;96126.84;5047194;28;20067;-70
2021/10/29 09:05:38;;;;;;;18.08;10.63;;;;;;;4.29;82.07;96122.19;5046920;28;20055;-74
2021/10/29 09:08:14;;;;;;;19.42;11.40;;;;;;;4.42;81.93;96132.31;5046731;28;20107;-74
2021/10/29 09:31:25;;;;;;;25.17;10.55;;;;;;;4.49;81.50;96127.41;5050324;28;20119;-73
2021/10/29 09:33:52;;;;;;;20.75;10.88;;;;;;;4.57;81.90;96123.28;5051461;28;20131;-74
2021/10/29 09:36:30;;;;;;;22.27;11.80;;;;;;;4.56;82.21;96122.47;5050733;28;20420;-73
2021/10/29 09:38:59;;;;;;;18.05;11.07;;;;;;;4.68;82.56;96130.16;5051577;28;20056;-74
2021/10/29 09:41:25;;;;;;;24.23;11.18;;;;;;;4.73;81.85;96127.41;5050119;28;20459;-74
2021/10/29 09:44:06;;;;;;;16.63;10.48;;;;;;;4.77;82.06;96127.66;5050945;28;20072;-74
2021/10/29 09:46:42;;;;;;;15.30;9.52;;;;;;;4.74;82.31;96125.53;5050904;28;20392;-74
2021/10/29 09:49:19;;;;;;;28.63;9.93;;;;;;;4.69;81.58;96127.19;5049566;28;20052;-74
2021/10/29 09:52:05;;;;;;;18.75;10.50;;;;;;;4.49;81.68;96135.50;5050884;28;20048;-75
2021/10/29 09:54:41;;;;;;;27.00;9.50;;;;;;;4.31;82.90;96120.81;5050569;28;20061;-74
2021/10/29 09:57:09;;;;;;;18.15;10.25;;;;;;;4.34;83.82;96131.03;5049901;28;20416;-74
2021/10/29 09:59:35;;;;;;;17.58;10.65;;;;;;;4.43;84.47;96134.72;5050852;28;20049;-74
2021/10/29 10:02:04;;;;;;;24.65;10.25;;;;;;;4.53;84.62;96116.84;5049526;28;20060;-73
2021/10/29 10:04:32;;;;;;;20.55;10.38;;;;;;;4.63;84.75;96116.72;5051010;28;20045;-76
2021/10/29 10:07:01;;;;;;;16.00;10.13;;;;;;;4.69;84.49;96110.19;5050206;28;20067;-74
2021/10/29 10:09:29;;;;;;;19.05;11.35;;;;;;;4.72;84.43;96121.22;5050564;28;20137;-74
2021/10/29 10:11:56;;;;;;;16.75;11.02;;;;;;;4.86;84.76;96118.66;5049463;28;20053;-74
2021/10/29 10:14:24;;;;;;;18.33;11.00;;;;;;;4.92;83.63;96112.09;5050108;28;20053;-75
2021/10/29 10:16:50;;;;;;;17.08;10.65;;;;;;;5.00;83.56;96116.06;5050045;28;20053;-75
2021/10/29 10:19:19;;;;;;;18.38;10.65;;;;;;;5.12;83.78;96112.97;5049582;28;20045;-74
2021/10/29 10:21:51;;;;;;;21.23;11.60;;;;;;;5.25;83.50;96112.25;5050066;28;20040;-75
2021/10/29 10:24:22;;;;;;;16.33;10.73;;;;;;;5.24;81.04;96100.66;5048703;28;20049;-74
2021/10/29 10:27:16;;;;;;;18.33;10.88;;;;;;;5.28;81.68;96094.69;5050507;28;20044;-74
2021/10/29 10:29:57;;;;;;;23.08;10.95;;;;;;;5.35;81.59;96101.31;5049250;28;20087;-74
2021/10/29 10:40:52;;;;;;;17.17;10.10;;;;;;;5.53;81.35;96094.31;5049848;28;20686;-74
2021/10/29 10:43:36;;;;;;;18.50;11.40;;;;;;;5.57;80.25;96097.22;5048923;28;20132;-74
2021/10/29 10:46:18;;;;;;;16.88;10.13;;;;;;;5.48;79.22;96084.41;5048966;28;20122;-74
2021/10/29 10:48:49;;;;;;;16.75;11.18;;;;;;;5.38;79.97;96079.13;5049704;28;20401;-74
2021/10/29 10:51:41;;;;;;;18.42;10.65;;;;;;;5.34;80.43;96083.50;5048172;28;20045;-74
2021/10/29 10:54:15;;;;;;;18.08;11.80;;;;;;;5.29;80.26;96080.88;5049156;28;20103;-73
2021/10/29 10:56:57;;;;;;;20.73;12.40;;;;;;;5.17;80.96;96086.72;5048655;28;20051;-74
2021/10/29 10:59:42;;;;;;;17.15;11.80;;;;;;;5.07;80.07;96084.13;5048661;28;20049;-75
2021/10/29 11:10:42;;;;;;;19.00;12.05;;;;;;;5.10;81.36;96074.66;5015353;28;20048;-75
2021/10/29 11:13:11;;;;;;;18.20;12.15;;;;;;;5.16;81.44;96082.38;5048114;28;20459;-74
2021/10/29 11:15:39;;;;;;;21.17;12.50;;;;;;;5.11;81.00;96073.53;5049329;28;20483;-76
2021/10/29 11:18:31;;;;;;;19.00;12.40;;;;;;;5.26;81.19;96070.66;5048086;28;20072;-74
2021/10/29 11:21:19;;;;;;;22.65;13.38;;;;;;;5.30;81.25;96066.28;5049236;28;20061;-75
2021/10/29 11:23:53;;;;;;;19.45;12.55;;;;;;;5.41;81.66;96062.34;5048711;28;20044;-74
2021/10/29 11:26:25;;;;;;;;;;;;;;;5.48;82.04;96062.78;5048740;28;20056;-74
2021/10/29 11:28:54;;;;;;;20.52;13.35;;;;;;;5.46;81.79;96053.38;5049043;28;19929;-74
2021/10/29 11:31:25;;;;;;;22.65;14.52;;;;;;;5.53;82.23;96053.00;5047168;28;20056;-74
2021/10/29 11:33:54;;;;;;;22.15;14.18;;;;;;;5.66;82.45;96057.66;5048956;28;20049;-75
2021/10/29 11:36:23;;;;;;;21.92;13.10;;;;;;;5.76;81.91;96060.22;5046872;28;20106;-74
2021/10/29 11:38:52;;;;;;;20.08;13.20;;;;;;;5.76;80.56;96057.50;5049007;28;20041;-75
2021/10/29 11:41:21;;;;;;;20.95;14.00;;;;;;;5.84;81.41;96046.00;5047888;28;20049;-74
2021/10/29 11:43:48;;;;;;;21.13;12.98;;;;;;;5.94;80.13;96042.38;5048523;28;20045;-74
2021/10/29 11:46:16;;;;;;;20.73;13.95;;;;;;;6.03;80.41;96048.72;5048039;28;20053;-75
2021/10/29 11:48:57;;;;;;;19.00;12.80;;;;;;;5.89;78.65;96045.94;5047893;28;20067;-75
2021/10/29 11:51:24;;;;;;;19.77;12.80;;;;;;;5.84;78.66;96043.31;5048407;28;20057;-76
2021/10/29 11:53:55;;;;;;;22.90;13.35;;;;;;;5.95;79.56;96049.38;5047668;28;20069;-75
2021/10/29 11:56:28;;;;;;;19.95;13.25;;;;;;;5.96;79.06;96041.00;5048054;28;20052;-76
2021/10/29 11:59:06;;;;;;;21.13;13.60;;;;;;;5.87;78.89;96037.34;5047811;28;20048;-75
2021/10/29 12:01:36;;;;;;;19.35;13.35;;;;;;;5.81;80.05;96043.91;5047535;28;20073;-77
2021/10/29 12:09:33;;;;;;;22.55;14.45;;;;;;;5.84;80.42;96027.09;5048219;28;20107;-75
2021/10/29 12:12:04;;;;;;;24.20;13.98;;;;;;;5.95;80.97;96023.19;5047341;28;20049;-74
2021/10/29 12:14:32;;;;;;;21.30;14.05;;;;;;;5.96;80.49;96022.09;5047995;28;20598;-74
2021/10/29 12:17:11;;;;;;;20.98;13.23;;;;;;;5.87;80.49;96013.00;5047546;28;20080;-74
2021/10/29 12:19:40;;;;;;;22.02;13.80;;;;;;;5.88;80.92;96011.09;5047329;28;20068;-74
2021/10/29 12:24:59;;;;;;;24.35;14.57;;;;;;;5.87;80.77;96010.31;5043075;28;20059;-74
2021/10/29 12:27:33;;;;;;;24.17;15.82;;;;;;;5.96;81.41;96005.88;5047841;28;20045;-74
2021/10/29 12:30:31;;;;;;;23.80;13.93;;;;;;;6.04;80.84;95998.97;5047259;28;20053;-75
2021/10/29 12:38:54;;;;;;;23.25;14.25;;;;;;;6.14;80.05;95987.97;5047091;28;20048;-74
2021/10/29 13:03:40;;;;;;;25.50;15.52;;;;;;;6.64;79.81;95971.88;5047348;28;20110;-74
2021/10/29 13:06:07;;;;;;;23.75;14.65;;;;;;;6.71;78.37;95968.75;5046940;28;20045;-75
2021/10/29 13:08:36;;;;;;;25.45;15.45;;;;;;;6.75;78.52;95969.75;5047088;28;20048;-74
2021/10/29 13:11:03;;;;;;;23.70;14.35;;;;;;;6.76;78.41;95958.63;5047066;28;20057;-73
2021/10/29 13:13:36;;;;;;;25.13;15.23;;;;;;;6.72;78.54;95960.31;5047560;28;20049;-75
2021/10/29 13:16:03;;;;;;;19.05;13.15;;;;;;;6.64;77.99;95968.38;5047453;28;20063;-73
2021/10/29 13:18:39;;;;;;;25.13;13.82;;;;;;;6.59;77.62;95971.19;5046692;28;20052;-74
2021/10/29 13:21:43;;;;;;;22.73;14.00;;;;;;;6.47;77.87;95967.06;5046969;28;20052;-74
2021/10/29 13:38:17;;;;;;;35.65;15.65;;;;;;;6.48;77.93;95949.75;5044505;28;20051;-74
2021/10/29 13:51:47;;;;;;;;;;;;;;;6.66;78.62;95944.50;5046704;28;20892;-75
2021/10/29 13:54:18;;;;;;;29.60;19.73;;;;;;;6.85;77.73;95947.91;5044904;28;20463;-75
2021/10/29 13:57:07;;;;;;;25.00;16.73;;;;;;;6.85;77.16;95942.47;5046783;28;20575;-76